createdAt,value
2022-12-19T00:00:33.540Z,43.30
2022-12-19T00:03:02.420Z,41.27
2022-12-19T00:05:31.156Z,40.77
2022-12-19T00:08:03.088Z,37.53
2022-12-19T00:10:41.443Z,38.53
2022-12-19T00:13:13.430Z,34.43
2022-12-19T00:15:43.429Z,37.50
2022-12-19T00:18:11.783Z,35.93
2022-12-19T00:20:40.880Z,43.03
2022-12-19T00:23:09.234Z,39.07
2022-12-19T00:25:37.575Z,39.60
2022-12-19T00:28:08.453Z,38.30
2022-12-19T00:30:36.845Z,40.13
2022-12-19T00:33:06.658Z,38.93
2022-12-19T00:35:35.072Z,36.50
2022-12-19T00:38:04.055Z,36.97
2022-12-19T00:40:32.423Z,33.83
2022-12-19T00:43:00.833Z,39.30
2022-12-19T00:45:29.303Z,37.67
2022-12-19T00:47:58.812Z,37.77
2022-12-19T00:50:35.872Z,40.97
2022-12-19T00:53:04.326Z,36.93
2022-12-19T00:55:32.705Z,35.03
2022-12-19T00:58:01.149Z,38.73
2022-12-19T01:00:29.529Z,36.37
2022-12-19T01:02:58.833Z,37.70
2022-12-19T01:05:28.614Z,38.70
2022-12-19T01:07:57.812Z,40.80
2022-12-19T01:10:26.170Z,36.83
2022-12-19T01:12:53.566Z,42.20
2022-12-19T01:15:22.185Z,36.07
2022-12-19T01:17:50.600Z,36.63
2022-12-19T01:20:29.066Z,41.47
2022-12-19T01:23:00.503Z,39.37
2022-12-19T01:25:29.506Z,42.97
2022-12-19T01:27:58.123Z,40.40
2022-12-19T01:30:26.537Z,41.03
2022-12-19T01:32:56.059Z,38.40
2022-12-19T01:35:24.614Z,40.20
2022-12-19T01:37:55.862Z,38.93
2022-12-19T01:40:38.131Z,38.60
2022-12-19T01:43:06.658Z,39.47
2022-12-19T01:45:43.645Z,39.80
2022-12-19T01:48:15.920Z,43.13
2022-12-19T01:50:46.579Z,37.57
2022-12-19T01:53:29.808Z,38.40
2022-12-19T01:55:59.627Z,34.03
2022-12-19T01:58:28.051Z,40.20
2022-12-19T02:00:56.450Z,42.43
2022-12-19T02:03:26.263Z,35.83
2022-12-19T02:05:54.700Z,41.23
2022-12-19T02:08:23.216Z,37.10
2022-12-19T02:10:51.647Z,40.70
2022-12-19T02:13:21.614Z,40.80
2022-12-19T02:15:51.104Z,40.20
2022-12-19T02:18:21.365Z,39.20
2022-12-19T02:21:16.651Z,38.83
2022-12-19T02:24:12.013Z,37.60
2022-12-19T02:26:48.606Z,35.63
2022-12-19T02:29:30.468Z,32.27
2022-12-19T02:32:00.587Z,38.43
2022-12-19T02:34:31.084Z,33.57
2022-12-19T02:37:00.006Z,29.00
2022-12-19T02:39:32.105Z,29.00
2022-12-19T02:42:02.426Z,30.37
2022-12-19T02:44:31.451Z,28.70
2022-12-19T02:47:02.373Z,28.80
2022-12-19T02:49:31.429Z,25.33
2022-12-19T02:51:59.958Z,26.20
2022-12-19T02:54:28.575Z,25.27
2022-12-19T02:56:57.252Z,26.30
2022-12-19T02:59:30.406Z,23.00
2022-12-19T03:01:59.770Z,22.47
2022-12-19T03:04:32.667Z,23.43
2022-12-19T03:07:03.013Z,22.90
2022-12-19T03:09:33.849Z,21.43
2022-12-19T03:12:03.657Z,22.53
2022-12-19T03:14:32.235Z,19.50
2022-12-19T03:17:04.706Z,22.90
2022-12-19T03:19:34.538Z,23.33
2022-12-19T03:22:03.056Z,23.90
2022-12-19T03:24:31.548Z,18.57
2022-12-19T03:27:04.282Z,16.93
2022-12-19T03:29:33.757Z,20.70
2022-12-19T03:32:03.320Z,19.70
2022-12-19T03:34:32.902Z,18.63
2022-12-19T03:37:03.782Z,16.03
2022-12-19T03:39:32.404Z,16.63
2022-12-19T03:42:18.758Z,16.83
2022-12-19T03:44:47.206Z,18.27
2022-12-19T03:47:16.543Z,16.40
2022-12-19T03:49:45.287Z,16.33
2022-12-19T03:52:17.990Z,15.10
2022-12-19T03:54:47.705Z,16.10
2022-12-19T03:57:16.911Z,16.37
2022-12-19T03:59:45.964Z,15.27
2022-12-19T04:02:15.095Z,14.97
2022-12-19T04:04:43.933Z,17.20
2022-12-19T04:07:12.480Z,16.57
2022-12-19T04:09:42.839Z,17.63
2022-12-19T04:12:15.733Z,18.17
2022-12-19T04:14:44.244Z,15.63
2022-12-19T04:17:14.971Z,16.97
2022-12-19T04:19:44.992Z,17.50
2022-12-19T04:22:14.135Z,18.53
2022-12-19T04:24:44.421Z,17.10
2022-12-19T04:27:13.053Z,14.67
2022-12-19T04:29:41.734Z,15.67
2022-12-19T04:32:10.317Z,19.17
2022-12-19T04:34:42.830Z,16.20
2022-12-19T04:37:11.607Z,18.37
2022-12-19T04:39:40.060Z,13.37
2022-12-19T04:42:10.287Z,15.77
2022-12-19T04:44:39.066Z,15.57
2022-12-19T04:47:07.698Z,15.83
2022-12-19T04:49:36.250Z,18.40
2022-12-19T04:52:04.724Z,18.80
2022-12-19T04:54:34.225Z,19.73
2022-12-19T04:57:02.703Z,19.67
2022-12-19T04:59:32.628Z,21.60
2022-12-19T05:02:01.213Z,20.87
2022-12-19T05:04:29.736Z,19.93
2022-12-19T05:06:58.318Z,18.93
2022-12-19T05:09:27.287Z,20.17
2022-12-19T05:11:55.749Z,22.03
2022-12-19T05:14:24.403Z,22.17
2022-12-19T05:16:59.009Z,20.57
2022-12-19T05:19:29.890Z,22.37
2022-12-19T05:21:58.605Z,21.20
2022-12-19T05:24:27.006Z,25.13
2022-12-19T05:26:55.602Z,23.10
2022-12-19T05:29:24.354Z,26.17
2022-12-19T05:31:54.268Z,24.10
2022-12-19T05:34:22.854Z,23.13
2022-12-19T05:36:51.297Z,19.47
2022-12-19T05:39:19.912Z,29.40
2022-12-19T05:41:49.300Z,24.97
2022-12-19T05:44:18.178Z,29.43
2022-12-19T05:46:46.752Z,26.13
2022-12-19T05:49:19.551Z,23.47
2022-12-19T05:51:48.294Z,25.60
2022-12-19T05:54:16.930Z,23.97
2022-12-19T05:56:45.524Z,27.03
2022-12-19T05:59:14.273Z,24.30
2022-12-19T06:01:42.883Z,28.60
2022-12-19T06:04:11.694Z,23.43
2022-12-19T06:06:41.544Z,25.57
2022-12-19T06:09:09.973Z,27.97
2022-12-19T06:11:38.389Z,29.93
2022-12-19T06:14:09.674Z,20.27
2022-12-19T06:16:38.224Z,24.10
2022-12-19T06:19:06.786Z,24.13
2022-12-19T06:21:35.269Z,26.37
2022-12-19T06:24:05.235Z,22.63
2022-12-19T06:26:33.678Z,21.87
2022-12-19T06:29:02.312Z,27.93
2022-12-19T06:31:30.825Z,21.03
2022-12-19T06:33:59.329Z,23.60
2022-12-19T06:36:28.437Z,24.30
2022-12-19T06:38:57.911Z,22.17
2022-12-19T06:41:45.939Z,21.00
2022-12-19T06:44:14.908Z,18.57
2022-12-19T06:46:43.550Z,22.70
2022-12-19T06:49:12.243Z,24.87
2022-12-19T06:51:40.641Z,23.30
2022-12-19T06:54:13.058Z,19.50
2022-12-19T06:56:43.259Z,22.13
2022-12-19T06:59:12.184Z,21.43
2022-12-19T07:01:43.152Z,21.30
2022-12-19T07:04:11.788Z,18.07
2022-12-19T07:06:43.457Z,23.57
2022-12-19T07:09:15.992Z,26.27
2022-12-19T07:11:46.053Z,23.30
2022-12-19T07:14:14.714Z,19.97
2022-12-19T07:16:43.380Z,18.70
2022-12-19T07:19:11.897Z,20.87
2022-12-19T07:21:40.577Z,17.67
2022-12-19T07:24:09.578Z,20.87
2022-12-19T07:26:38.105Z,25.40
2022-12-19T07:29:11.998Z,21.37
2022-12-19T07:31:40.552Z,18.40
2022-12-19T07:34:10.231Z,20.60
2022-12-19T07:36:39.304Z,21.13
2022-12-19T07:39:07.832Z,19.53
2022-12-19T07:41:38.090Z,22.47
2022-12-19T07:44:07.015Z,20.07
2022-12-19T07:46:36.999Z,20.17
2022-12-19T07:49:05.710Z,20.37
2022-12-19T07:51:34.803Z,20.37
2022-12-19T07:54:06.096Z,16.83
2022-12-19T07:56:34.653Z,18.43
2022-12-19T07:59:03.370Z,19.93
2022-12-19T08:01:31.879Z,18.57
2022-12-19T08:04:01.770Z,17.70
2022-12-19T08:06:30.558Z,17.77
2022-12-19T08:08:59.116Z,21.63
2022-12-19T08:11:29.539Z,18.13
2022-12-19T08:13:58.005Z,18.83
2022-12-19T08:16:27.111Z,19.97
2022-12-19T08:18:56.533Z,17.60
2022-12-19T08:21:26.530Z,17.07
2022-12-19T08:23:55.229Z,16.53
2022-12-19T08:26:25.651Z,16.57
2022-12-19T08:28:54.230Z,17.53
2022-12-19T08:31:25.076Z,18.77
2022-12-19T08:33:55.282Z,13.77
2022-12-19T08:36:23.711Z,16.97
2022-12-19T08:38:53.529Z,19.10
2022-12-19T08:41:22.202Z,17.27
2022-12-19T08:43:50.683Z,15.67
2022-12-19T08:46:22.079Z,14.83
2022-12-19T08:48:53.283Z,18.80
2022-12-19T08:51:22.809Z,15.33
2022-12-19T08:53:53.001Z,13.30
2022-12-19T08:56:25.156Z,12.47
2022-12-19T08:58:56.438Z,16.37
2022-12-19T09:01:25.977Z,16.13
2022-12-19T09:04:56.787Z,12.43
2022-12-19T09:06:43.911Z,15.73
2022-12-19T09:09:13.961Z,16.37
2022-12-19T09:11:47.273Z,14.37
2022-12-19T09:14:20.812Z,12.60
2022-12-19T09:16:49.933Z,16.63
2022-12-19T09:19:18.630Z,10.90
2022-12-19T09:21:48.328Z,12.30
2022-12-19T09:24:18.674Z,15.00
2022-12-19T09:26:51.916Z,13.17
2022-12-19T09:29:22.310Z,16.17
2022-12-19T09:31:55.244Z,16.00
2022-12-19T09:34:33.102Z,14.50
2022-12-19T09:37:06.717Z,17.83
2022-12-19T09:39:36.388Z,14.27
2022-12-19T09:42:22.374Z,14.80
2022-12-19T09:44:54.307Z,15.33
2022-12-19T09:47:24.473Z,14.30
2022-12-19T09:49:54.097Z,14.97
2022-12-19T09:52:23.935Z,14.37
2022-12-19T09:54:55.108Z,10.97
2022-12-19T09:57:25.510Z,12.50
2022-12-19T09:59:55.618Z,15.30
2022-12-19T10:02:29.203Z,11.47
2022-12-19T10:05:12.846Z,13.33
2022-12-19T10:08:07.777Z,11.70
2022-12-19T10:12:35.987Z,14.73
2022-12-19T10:13:31.432Z,16.00
2022-12-19T10:16:01.693Z,11.60
2022-12-19T10:18:42.013Z,14.10
2022-12-19T10:21:11.335Z,14.20
2022-12-19T10:23:51.665Z,12.47
2022-12-19T10:26:20.812Z,12.53
2022-12-19T10:28:58.716Z,12.07
2022-12-19T10:31:33.012Z,10.53
2022-12-19T10:34:02.701Z,9.53
2022-12-19T10:37:04.710Z,12.60
2022-12-19T10:39:24.389Z,8.93
2022-12-19T10:41:53.278Z,11.43
2022-12-19T10:44:23.663Z,10.57
2022-12-19T10:46:53.407Z,12.80
2022-12-19T10:49:22.865Z,11.00
2022-12-19T10:51:55.158Z,12.57
2022-12-19T10:54:32.992Z,9.77
2022-12-19T10:57:03.396Z,10.53
2022-12-19T10:59:33.111Z,10.93
2022-12-19T11:02:04.011Z,14.53
2022-12-19T11:04:34.981Z,8.50
2022-12-19T11:07:06.960Z,10.73
2022-12-19T11:09:38.337Z,13.07
2022-12-19T11:16:56.629Z,10.30
2022-12-19T11:18:53.913Z,9.27
2022-12-19T11:28:45.763Z,10.27
2022-12-19T11:29:31.407Z,10.30
2022-12-19T11:29:40.282Z,13.23
2022-12-19T11:30:48.002Z,9.77
2022-12-19T11:31:51.055Z,12.33
2022-12-19T11:32:44.275Z,11.13
2022-12-19T11:35:17.339Z,11.33
2022-12-19T11:37:46.916Z,10.73
2022-12-19T11:40:17.306Z,13.53
2022-12-19T11:42:59.035Z,12.80
2022-12-19T11:45:38.390Z,12.60
2022-12-19T11:48:11.131Z,9.40
2022-12-19T11:50:41.175Z,9.97
2022-12-19T11:53:18.635Z,11.33
2022-12-19T11:55:52.249Z,12.10
2022-12-19T11:58:20.656Z,10.33
2022-12-19T12:00:53.528Z,11.20
2022-12-19T12:03:49.453Z,10.70
2022-12-19T12:06:31.446Z,11.13
2022-12-19T12:12:20.548Z,11.17
2022-12-19T12:19:52.348Z,9.67
2022-12-19T12:23:34.409Z,12.63
2022-12-19T12:27:25.877Z,12.00
2022-12-19T12:31:04.353Z,10.50
2022-12-19T12:31:10.259Z,12.40
2022-12-19T12:31:47.318Z,9.43
2022-12-19T12:31:55.167Z,12.60
2022-12-19T12:35:30.672Z,10.80
2022-12-19T12:35:54.020Z,10.70
2022-12-19T12:38:18.730Z,10.77
2022-12-19T12:40:46.892Z,9.70
2022-12-19T12:43:19.126Z,14.17
2022-12-19T12:45:47.945Z,12.37
2022-12-19T12:48:19.771Z,10.87
2022-12-19T12:50:54.855Z,10.10
2022-12-19T12:53:27.135Z,10.43
2022-12-19T12:55:56.750Z,11.90
2022-12-19T12:58:44.363Z,10.63
2022-12-19T13:01:14.149Z,8.83
2022-12-19T13:03:43.962Z,11.67
2022-12-19T13:06:24.614Z,10.67
2022-12-19T13:08:55.707Z,10.90
2022-12-19T13:11:57.792Z,8.27
2022-12-19T13:14:45.980Z,8.60
2022-12-19T13:17:14.766Z,9.57
2022-12-19T13:19:54.390Z,9.20
2022-12-19T13:22:41.835Z,11.27
2022-12-19T13:25:29.256Z,8.60
2022-12-19T13:28:17.916Z,8.60
2022-12-19T13:31:18.661Z,9.10
2022-12-19T13:33:56.313Z,10.53
2022-12-19T13:39:48.573Z,8.47
2022-12-19T13:40:01.897Z,7.87
2022-12-19T13:42:45.577Z,8.50
2022-12-19T13:45:17.247Z,6.50
2022-12-19T13:47:46.098Z,9.77
2022-12-19T13:50:19.922Z,10.53
2022-12-19T13:52:50.745Z,8.73
2022-12-19T13:55:19.317Z,8.37
2022-12-19T13:57:56.031Z,6.23
2022-12-19T14:00:32.417Z,6.17
2022-12-19T14:03:04.231Z,7.00
2022-12-19T14:06:14.580Z,6.00
2022-12-19T14:08:21.902Z,8.13
2022-12-19T14:11:42.720Z,10.20
2022-12-19T14:14:06.425Z,7.50
2022-12-19T14:16:44.979Z,6.97
2022-12-19T14:19:20.691Z,5.93
2022-12-19T14:22:04.313Z,8.30
2022-12-19T14:24:37.757Z,7.20
2022-12-19T14:28:26.134Z,7.80
2022-12-19T14:30:27.771Z,7.77
2022-12-19T14:33:43.502Z,5.93
2022-12-19T14:36:08.613Z,5.33
2022-12-19T14:39:24.087Z,8.93
2022-12-19T14:41:39.318Z,5.70
2022-12-19T14:52:35.692Z,7.53
2022-12-19T14:54:03.752Z,5.40
2022-12-19T14:54:04.227Z,10.97
2022-12-19T14:54:20.958Z,6.10
2022-12-19T14:56:03.687Z,7.23
2022-12-19T14:58:54.699Z,8.23
2022-12-19T15:01:23.322Z,7.87
2022-12-19T15:04:49.126Z,6.90
2022-12-19T15:07:09.460Z,4.73
2022-12-19T15:11:04.536Z,5.90
2022-12-19T15:14:47.569Z,7.67
2022-12-19T15:15:38.727Z,7.97
2022-12-19T15:18:16.175Z,5.83
2022-12-19T15:20:44.800Z,5.80
2022-12-19T15:23:21.469Z,5.83
2022-12-19T15:26:07.275Z,6.57
2022-12-19T15:28:39.176Z,6.50
2022-12-19T15:31:08.815Z,7.13
2022-12-19T15:33:48.314Z,7.57
2022-12-19T15:36:27.043Z,7.30
2022-12-19T15:38:57.993Z,7.90
2022-12-19T15:41:26.597Z,6.50
2022-12-19T15:44:04.269Z,9.87
2022-12-19T15:46:33.774Z,7.87
2022-12-19T15:49:02.437Z,7.73
2022-12-19T15:51:30.980Z,8.67
2022-12-19T15:54:38.265Z,7.40
2022-12-19T15:56:50.481Z,8.90
2022-12-19T15:59:22.976Z,7.70
2022-12-19T16:01:52.334Z,5.07
2022-12-19T16:04:20.992Z,7.07
2022-12-19T16:06:49.509Z,5.13
2022-12-19T16:09:21.263Z,5.00
2022-12-19T16:11:49.842Z,7.53
2022-12-19T16:14:18.540Z,5.97
2022-12-19T16:16:47.324Z,7.60
2022-12-19T16:19:24.184Z,13.90
2022-12-19T16:21:53.145Z,5.93
2022-12-19T16:24:23.482Z,5.77
2022-12-19T16:26:53.582Z,6.40
2022-12-19T16:29:22.239Z,7.17
2022-12-19T16:31:50.664Z,5.80
2022-12-19T16:34:20.040Z,5.27
2022-12-19T16:36:48.432Z,6.63
2022-12-19T16:39:16.932Z,6.50
2022-12-19T16:41:47.079Z,5.90
2022-12-19T16:44:19.232Z,5.83
2022-12-19T16:46:50.962Z,5.30
2022-12-19T16:49:20.517Z,8.50
2022-12-19T16:51:49.299Z,4.50
2022-12-19T16:54:18.104Z,6.27
2022-12-19T16:56:48.255Z,8.07
2022-12-19T16:59:17.365Z,5.27
2022-12-19T17:01:46.245Z,5.23
2022-12-19T17:04:15.839Z,5.13
2022-12-19T17:06:44.249Z,5.77
2022-12-19T17:09:14.580Z,8.17
2022-12-19T17:11:43.050Z,7.40
2022-12-19T17:14:15.373Z,5.07
2022-12-19T17:16:43.911Z,7.30
2022-12-19T17:19:13.035Z,8.90
2022-12-19T17:21:41.535Z,6.73
2022-12-19T17:24:11.776Z,6.07
2022-12-19T17:26:40.755Z,6.10
2022-12-19T17:29:09.356Z,6.37
2022-12-19T17:31:39.826Z,8.07
2022-12-19T17:34:09.431Z,8.20
2022-12-19T17:36:38.350Z,7.40
2022-12-19T17:39:08.248Z,6.87
2022-12-19T17:41:36.778Z,7.67
2022-12-19T17:44:05.440Z,6.50
2022-12-19T17:46:34.006Z,6.80
2022-12-19T17:49:03.806Z,7.10
2022-12-19T17:51:32.233Z,7.13
2022-12-19T17:54:00.728Z,10.53
2022-12-19T17:56:30.183Z,8.07
2022-12-19T17:58:58.689Z,5.63
2022-12-19T18:01:27.360Z,7.87
2022-12-19T18:03:56.306Z,6.83
2022-12-19T18:06:26.229Z,7.93
2022-12-19T18:08:55.246Z,6.57
2022-12-19T18:11:24.318Z,6.53
2022-12-19T18:13:52.903Z,5.23
2022-12-19T18:16:22.157Z,6.27
2022-12-19T18:18:50.834Z,6.37
2022-12-19T18:21:19.796Z,7.13
2022-12-19T18:23:50.011Z,10.07
2022-12-19T18:26:18.448Z,5.63
2022-12-19T18:28:46.906Z,5.77
2022-12-19T18:31:16.237Z,6.53
2022-12-19T18:33:46.482Z,6.43
2022-12-19T18:36:17.595Z,6.53
2022-12-19T18:38:46.137Z,4.90
2022-12-19T18:41:17.007Z,8.10
2022-12-19T18:43:45.540Z,6.13
2022-12-19T18:46:14.802Z,6.77
2022-12-19T18:48:43.555Z,7.73
2022-12-19T18:51:14.814Z,6.00
2022-12-19T18:53:43.204Z,8.33
2022-12-19T18:56:11.798Z,6.03
2022-12-19T18:58:42.004Z,6.40
2022-12-19T19:01:18.226Z,8.63
2022-12-19T19:03:48.070Z,7.10
2022-12-19T19:06:19.455Z,6.83
2022-12-19T19:08:48.972Z,6.63
2022-12-19T19:11:17.337Z,7.13
2022-12-19T19:13:47.695Z,7.30
2022-12-19T19:16:18.362Z,6.63
2022-12-19T19:18:47.193Z,6.60
2022-12-19T19:21:18.021Z,6.17
2022-12-19T19:23:49.825Z,8.40
2022-12-19T19:26:18.345Z,7.00
2022-12-19T19:28:52.245Z,7.73
2022-12-19T19:31:21.553Z,6.93
2022-12-19T19:33:50.918Z,7.77
2022-12-19T19:36:20.798Z,7.70
2022-12-19T19:38:50.139Z,7.73
2022-12-19T19:41:18.745Z,6.17
2022-12-19T19:43:49.312Z,9.43
2022-12-19T19:46:18.605Z,7.07
2022-12-19T19:48:47.454Z,6.33
2022-12-19T19:51:16.747Z,6.83
2022-12-19T19:53:45.520Z,8.03
2022-12-19T19:56:13.939Z,5.00
2022-12-19T19:58:42.361Z,8.57
2022-12-19T20:01:12.856Z,7.17
2022-12-19T20:03:43.826Z,8.97
2022-12-19T20:06:12.424Z,8.43
2022-12-19T20:08:42.735Z,7.60
2022-12-19T20:11:11.898Z,7.93
2022-12-19T20:13:40.555Z,9.00
2022-12-19T20:16:09.753Z,7.00
2022-12-19T20:18:39.892Z,9.93
2022-12-19T20:21:18.581Z,7.87
2022-12-19T20:23:47.307Z,9.57
2022-12-19T20:26:16.990Z,8.50
2022-12-19T20:28:49.108Z,10.20
2022-12-19T20:31:18.716Z,8.33
2022-12-19T20:33:49.415Z,11.10
2022-12-19T20:36:18.070Z,5.97
2022-12-19T20:38:46.771Z,8.60
2022-12-19T20:41:15.200Z,9.93
2022-12-19T20:43:43.724Z,7.57
2022-12-19T20:46:12.897Z,6.90
2022-12-19T20:48:41.594Z,7.00
2022-12-19T20:51:11.690Z,9.47
2022-12-19T20:53:41.722Z,9.57
2022-12-19T20:56:10.617Z,7.10
2022-12-19T20:58:39.404Z,9.93
2022-12-19T21:01:08.379Z,7.17
2022-12-19T21:03:36.940Z,7.00
2022-12-19T21:06:05.714Z,8.13
2022-12-19T21:08:35.630Z,10.90
2022-12-19T21:11:04.211Z,8.40
2022-12-19T21:13:32.790Z,6.30
2022-12-19T21:16:03.074Z,9.10
2022-12-19T21:18:32.714Z,6.37
2022-12-19T21:21:01.325Z,7.63
2022-12-19T21:23:29.960Z,9.20
2022-12-19T21:26:00.298Z,6.37
2022-12-19T21:28:29.113Z,7.27
2022-12-19T21:30:58.548Z,7.93
2022-12-19T21:33:27.256Z,7.33
2022-12-19T21:35:55.738Z,8.43
2022-12-19T21:38:24.513Z,5.77
2022-12-19T21:40:52.931Z,8.13
2022-12-19T21:43:22.943Z,9.13
2022-12-19T21:45:51.560Z,6.23
2022-12-19T21:48:20.110Z,7.10
2022-12-19T21:50:48.620Z,6.40
2022-12-19T21:53:17.115Z,10.37
2022-12-19T21:55:45.480Z,8.27
2022-12-19T21:58:14.222Z,8.53
2022-12-19T22:00:44.335Z,6.30
2022-12-19T22:03:14.911Z,6.93
2022-12-19T22:05:44.065Z,9.90
2022-12-19T22:08:12.442Z,9.60
2022-12-19T22:10:41.107Z,5.63
2022-12-19T22:13:09.815Z,6.10
2022-12-19T22:15:38.502Z,7.30
2022-12-19T22:18:08.960Z,9.30
2022-12-19T22:20:43.203Z,6.37
2022-12-19T22:23:13.552Z,7.50
2022-12-19T22:25:44.191Z,9.20
2022-12-19T22:28:14.237Z,5.97
2022-12-19T22:30:43.080Z,6.77
2022-12-19T22:33:16.100Z,6.27
2022-12-19T22:35:44.811Z,10.73
2022-12-19T22:38:13.424Z,7.67
2022-12-19T22:40:41.939Z,8.50
2022-12-19T22:43:12.594Z,8.73
2022-12-19T22:45:48.610Z,7.07
2022-12-19T22:48:19.034Z,6.60
2022-12-19T22:50:48.257Z,7.40
2022-12-19T22:53:17.785Z,6.40
2022-12-19T22:55:48.823Z,8.70
2022-12-19T22:58:17.285Z,10.03
2022-12-19T23:00:46.019Z,5.73
2022-12-19T23:03:14.819Z,6.30
2022-12-19T23:05:51.553Z,11.73
2022-12-19T23:08:20.481Z,5.40
2022-12-19T23:10:51.267Z,5.40
2022-12-19T23:13:19.654Z,7.00
2022-12-19T23:15:48.136Z,10.40
2022-12-19T23:18:16.824Z,7.63
2022-12-19T23:20:46.865Z,6.57
2022-12-19T23:23:15.458Z,7.10
2022-12-19T23:25:44.405Z,6.77
2022-12-19T23:28:12.888Z,7.50
2022-12-19T23:30:41.525Z,7.10
2022-12-19T23:33:10.588Z,5.93
2022-12-19T23:35:40.696Z,6.17
2022-12-19T23:38:10.952Z,6.13
2022-12-19T23:40:39.450Z,5.67
2022-12-19T23:43:07.983Z,7.33
2022-12-19T23:45:39.729Z,5.27
2022-12-19T23:48:08.310Z,7.73
2022-12-19T23:50:36.903Z,7.60
2022-12-19T23:53:05.393Z,6.70
2022-12-19T23:55:35.357Z,6.97
2022-12-19T23:58:09.347Z,9.40
